sensor_id;sensor_type;location;lat;lon;timestamp;pressure;altitude;pressure_sealevel;temperature;humidity
28167;BME280;15455;53.376;-6.262;2023-03-21T00:02:36;100101.31;;;9.37;100.00
28167;BME280;15455;53.376;-6.262;2023-03-21T00:05:22;100108.25;;;9.35;100.00
28167;BME280;15455;53.376;-6.262;2023-03-21T00:08:07;100107.44;;;9.32;100.00
28167;BME280;15455;53.376;-6.262;2023-03-21T00:10:57;100102.25;;;9.29;100.00
28167;BME280;15455;53.376;-6.262;2023-03-21T00:13:43;100105.75;;;9.18;100.00
28167;BME280;15455;53.376;-6.262;2023-03-21T00:16:29;100091.97;;;9.04;100.00
28167;BME280;15455;53.376;-6.262;2023-03-21T00:19:24;100085.97;;;8.97;100.00
28167;BME280;15455;53.376;-6.262;2023-03-21T00:22:11;100088.59;;;8.96;100.00
28167;BME280;15455;53.376;-6.262;2023-03-21T00:24:56;100085.09;;;9.00;100.00
28167;BME280;15455;53.376;-6.262;2023-03-21T00:27:42;100079.00;;;8.98;100.00
28167;BME280;15455;53.376;-6.262;2023-03-21T00:30:47;100076.44;;;8.95;100.00
28167;BME280;15455;53.376;-6.262;2023-03-21T00:33:34;100066.06;;;8.92;100.00
28167;BME280;15455;53.376;-6.262;2023-03-21T00:36:20;100073.84;;;8.92;100.00
28167;BME280;15455;53.376;-6.262;2023-03-21T00:39:06;100070.38;;;8.93;100.00
28167;BME280;15455;53.376;-6.262;2023-03-21T00:41:52;100063.44;;;8.93;100.00
28167;BME280;15455;53.376;-6.262;2023-03-21T00:44:37;100074.66;;;8.98;100.00
28167;BME280;15455;53.376;-6.262;2023-03-21T00:47:24;100068.56;;;9.01;100.00
28167;BME280;15455;53.376;-6.262;2023-03-21T00:50:10;100066.00;;;8.98;100.00
28167;BME280;15455;53.376;-6.262;2023-03-21T00:52:56;100059.97;;;8.94;100.00
28167;BME280;15455;53.376;-6.262;2023-03-21T00:55:41;100058.22;;;8.96;100.00
28167;BME280;15455;53.376;-6.262;2023-03-21T00:58:27;100058.16;;;9.01;100.00
28167;BME280;15455;53.376;-6.262;2023-03-21T01:01:12;100060.69;;;9.13;100.00
28167;BME280;15455;53.376;-6.262;2023-03-21T01:03:59;100055.38;;;9.24;100.00
28167;BME280;15455;53.376;-6.262;2023-03-21T01:06:49;100044.03;;;9.33;100.00
28167;BME280;15455;53.376;-6.262;2023-03-21T01:09:35;100044.88;;;9.38;100.00
28167;BME280;15455;53.376;-6.262;2023-03-21T01:12:20;100038.81;;;9.37;100.00
28167;BME280;15455;53.376;-6.262;2023-03-21T01:15:06;100036.19;;;9.37;100.00
28167;BME280;15455;53.376;-6.262;2023-03-21T01:17:52;100029.19;;;9.41;100.00
28167;BME280;15455;53.376;-6.262;2023-03-21T01:20:40;100027.44;;;9.45;100.00
28167;BME280;15455;53.376;-6.262;2023-03-21T01:23:27;100010.91;;;9.47;100.00
28167;BME280;15455;53.376;-6.262;2023-03-21T01:26:13;100012.63;;;9.50;100.00
28167;BME280;15455;53.376;-6.262;2023-03-21T01:29:02;100004.78;;;9.53;100.00
28167;BME280;15455;53.376;-6.262;2023-03-21T01:31:48;99995.25;;;9.49;100.00
28167;BME280;15455;53.376;-6.262;2023-03-21T01:34:33;99997.03;;;9.47;100.00
28167;BME280;15455;53.376;-6.262;2023-03-21T01:37:18;99984.91;;;9.44;100.00
28167;BME280;15455;53.376;-6.262;2023-03-21T01:40:08;99992.75;;;9.41;100.00
28167;BME280;15455;53.376;-6.262;2023-03-21T01:42:58;99988.41;;;9.38;100.00
28167;BME280;15455;53.376;-6.262;2023-03-21T01:49:34;99983.25;;;9.35;100.00
28167;BME280;15455;53.376;-6.262;2023-03-21T01:52:34;99991.09;;;9.31;100.00
28167;BME280;15455;53.376;-6.262;2023-03-21T01:55:33;99982.47;;;9.29;100.00
28167;BME280;15455;53.376;-6.262;2023-03-21T01:58:25;99984.19;;;9.27;100.00
28167;BME280;15455;53.376;-6.262;2023-03-21T02:01:25;99979.88;;;9.24;100.00
28167;BME280;15455;53.376;-6.262;2023-03-21T02:04:13;99979.06;;;9.20;100.00
28167;BME280;15455;53.376;-6.262;2023-03-21T02:07:26;99970.44;;;9.14;100.00
28167;BME280;15455;53.376;-6.262;2023-03-21T02:10:20;99960.94;;;9.07;100.00
28167;BME280;15455;53.376;-6.262;2023-03-21T02:13:09;99955.81;;;9.00;100.00
28167;BME280;15455;53.376;-6.262;2023-03-21T02:28:24;99916.31;;;8.50;100.00
28167;BME280;15455;53.376;-6.262;2023-03-21T02:46:25;99919.03;;;8.33;100.00
28167;BME280;15455;53.376;-6.262;2023-03-21T02:49:35;99915.53;;;8.39;100.00
28167;BME280;15455;53.376;-6.262;2023-03-21T02:52:32;99912.00;;;8.45;100.00
28167;BME280;15455;53.376;-6.262;2023-03-21T02:55:29;99912.84;;;8.50;100.00
28167;BME280;15455;53.376;-6.262;2023-03-21T02:58:22;99900.69;;;8.55;100.00
28167;BME280;15455;53.376;-6.262;2023-03-21T03:01:12;99907.56;;;8.61;100.00
28167;BME280;15455;53.376;-6.262;2023-03-21T03:04:19;99902.34;;;8.65;100.00
28167;BME280;15455;53.376;-6.262;2023-03-21T03:07:20;99894.50;;;8.68;100.00
28167;BME280;15455;53.376;-6.262;2023-03-21T03:13:37;99891.03;;;8.69;100.00
28167;BME280;15455;53.376;-6.262;2023-03-21T03:19:56;99883.25;;;8.66;100.00
28167;BME280;15455;53.376;-6.262;2023-03-21T03:23:21;99886.75;;;8.62;100.00
28167;BME280;15455;53.376;-6.262;2023-03-21T03:26:05;99879.84;;;8.61;100.00
28167;BME280;15455;53.376;-6.262;2023-03-21T03:28:58;99880.69;;;8.60;100.00
28167;BME280;15455;53.376;-6.262;2023-03-21T03:31:59;99872.91;;;8.59;100.00
28167;BME280;15455;53.376;-6.262;2023-03-21T03:34:52;99871.19;;;8.58;100.00
28167;BME280;15455;53.376;-6.262;2023-03-21T03:37:49;99863.34;;;8.61;100.00
28167;BME280;15455;53.376;-6.262;2023-03-21T03:40:47;99864.25;;;8.60;100.00
28167;BME280;15455;53.376;-6.262;2023-03-21T03:43:58;99859.88;;;8.60;100.00
28167;BME280;15455;53.376;-6.262;2023-03-21T03:47:00;99856.44;;;8.60;100.00
28167;BME280;15455;53.376;-6.262;2023-03-21T03:49:54;99859.03;;;8.61;100.00
28167;BME280;15455;53.376;-6.262;2023-03-21T03:52:46;99850.34;;;8.64;100.00
28167;BME280;15455;53.376;-6.262;2023-03-21T03:55:45;99846.00;;;8.63;100.00
28167;BME280;15455;53.376;-6.262;2023-03-21T03:58:34;99849.44;;;8.65;100.00
28167;BME280;15455;53.376;-6.262;2023-03-21T04:01:33;99844.22;;;8.66;100.00
28167;BME280;15455;53.376;-6.262;2023-03-21T04:04:19;99842.47;;;8.70;100.00
28167;BME280;15455;53.376;-6.262;2023-03-21T04:07:09;99842.47;;;8.70;100.00
28167;BME280;15455;53.376;-6.262;2023-03-21T04:09:56;99831.19;;;8.71;100.00
28167;BME280;15455;53.376;-6.262;2023-03-21T04:12:41;99825.97;;;8.73;100.00
28167;BME280;15455;53.376;-6.262;2023-03-21T04:15:48;99812.94;;;8.76;100.00
28167;BME280;15455;53.376;-6.262;2023-03-21T04:18:35;99814.66;;;8.78;100.00
28167;BME280;15455;53.376;-6.262;2023-03-21T04:21:22;99811.16;;;8.79;100.00
28167;BME280;15455;53.376;-6.262;2023-03-21T04:24:08;99805.09;;;8.79;100.00
28167;BME280;15455;53.376;-6.262;2023-03-21T04:26:53;99798.13;;;8.79;100.00
28167;BME280;15455;53.376;-6.262;2023-03-21T04:29:54;99799.03;;;8.78;100.00
28167;BME280;15455;53.376;-6.262;2023-03-21T04:32:48;99791.25;;;8.74;100.00
28167;BME280;15455;53.376;-6.262;2023-03-21T04:35:38;99782.63;;;8.72;100.00
28167;BME280;15455;53.376;-6.262;2023-03-21T04:38:25;99777.44;;;8.70;100.00
28167;BME280;15455;53.376;-6.262;2023-03-21T04:41:18;99780.03;;;8.72;100.00
28167;BME280;15455;53.376;-6.262;2023-03-21T04:44:07;99780.88;;;8.71;100.00
28167;BME280;15455;53.376;-6.262;2023-03-21T04:46:53;99777.41;;;8.72;100.00
28167;BME280;15455;53.376;-6.262;2023-03-21T04:49:39;99781.75;;;8.73;100.00
28167;BME280;15455;53.376;-6.262;2023-03-21T04:52:27;99779.13;;;8.74;100.00
28167;BME280;15455;53.376;-6.262;2023-03-21T04:55:13;99777.34;;;8.78;100.00
28167;BME280;15455;53.376;-6.262;2023-03-21T04:58:00;99778.22;;;8.78;100.00
28167;BME280;15455;53.376;-6.262;2023-03-21T05:00:45;99784.28;;;8.79;100.00
28167;BME280;15455;53.376;-6.262;2023-03-21T05:03:32;99785.09;;;8.81;100.00
28167;BME280;15455;53.376;-6.262;2023-03-21T05:06:19;99784.25;;;8.82;100.00
28167;BME280;15455;53.376;-6.262;2023-03-21T05:09:07;99792.03;;;8.83;100.00
28167;BME280;15455;53.376;-6.262;2023-03-21T05:11:54;99785.09;;;8.85;100.00
28167;BME280;15455;53.376;-6.262;2023-03-21T05:14:39;99785.06;;;8.89;100.00
28167;BME280;15455;53.376;-6.262;2023-03-21T05:17:25;99769.41;;;8.90;100.00
28167;BME280;15455;53.376;-6.262;2023-03-21T05:20:15;99762.47;;;8.91;100.00
28167;BME280;15455;53.376;-6.262;2023-03-21T05:23:01;99760.69;;;8.94;100.00
28167;BME280;15455;53.376;-6.262;2023-03-21T05:25:46;99759.78;;;8.97;100.00
28167;BME280;15455;53.376;-6.262;2023-03-21T05:28:44;99763.25;;;8.99;100.00
28167;BME280;15455;53.376;-6.262;2023-03-21T05:31:32;99758.00;;;9.00;100.00
28167;BME280;15455;53.376;-6.262;2023-03-21T05:34:24;99767.53;;;9.03;100.00
28167;BME280;15455;53.376;-6.262;2023-03-21T05:37:11;99768.38;;;9.05;100.00
28167;BME280;15455;53.376;-6.262;2023-03-21T05:40:05;99764.91;;;9.04;100.00
28167;BME280;15455;53.376;-6.262;2023-03-21T05:42:52;99766.59;;;9.09;100.00
28167;BME280;15455;53.376;-6.262;2023-03-21T05:45:40;99757.88;;;9.11;100.00
28167;BME280;15455;53.376;-6.262;2023-03-21T05:48:26;99758.69;;;9.16;100.00
28167;BME280;15455;53.376;-6.262;2023-03-21T05:51:29;99758.63;;;9.21;100.00
28167;BME280;15455;53.376;-6.262;2023-03-21T05:54:15;99767.28;;;9.25;100.00
28167;BME280;15455;53.376;-6.262;2023-03-21T05:57:04;99762.91;;;9.25;100.00
28167;BME280;15455;53.376;-6.262;2023-03-21T06:00:19;99762.88;;;9.28;100.00
28167;BME280;15455;53.376;-6.262;2023-03-21T06:03:27;99762.88;;;9.28;100.00
28167;BME280;15455;53.376;-6.262;2023-03-21T06:06:25;99761.97;;;9.31;100.00
28167;BME280;15455;53.376;-6.262;2023-03-21T06:09:13;99762.00;;;9.29;100.00
28167;BME280;15455;53.376;-6.262;2023-03-21T06:12:03;99765.38;;;9.34;100.00
28167;BME280;15455;53.376;-6.262;2023-03-21T06:14:56;99760.19;;;9.36;100.00
28167;BME280;15455;53.376;-6.262;2023-03-21T06:17:51;99756.69;;;9.35;100.00
28167;BME280;15455;53.376;-6.262;2023-03-21T06:20:37;99761.91;;;9.35;100.00
28167;BME280;15455;53.376;-6.262;2023-03-21T06:23:27;99767.16;;;9.32;100.00
28167;BME280;15455;53.376;-6.262;2023-03-21T06:26:13;99779.34;;;9.30;100.00
28167;BME280;15455;53.376;-6.262;2023-03-21T06:28:58;99787.13;;;9.32;100.00
28167;BME280;15455;53.376;-6.262;2023-03-21T06:31:44;99797.53;;;9.33;100.00
28167;BME280;15455;53.376;-6.262;2023-03-21T06:34:30;99791.44;;;9.33;100.00
28167;BME280;15455;53.376;-6.262;2023-03-21T06:37:16;99809.66;;;9.33;100.00
28167;BME280;15455;53.376;-6.262;2023-03-21T06:40:02;99821.84;;;9.32;100.00
28167;BME280;15455;53.376;-6.262;2023-03-21T06:42:49;99823.63;;;9.27;100.00
28167;BME280;15455;53.376;-6.262;2023-03-21T06:45:34;99825.44;;;9.22;100.00
28167;BME280;15455;53.376;-6.262;2023-03-21T06:48:20;99829.00;;;9.13;100.00
28167;BME280;15455;53.376;-6.262;2023-03-21T06:51:07;99837.78;;;9.04;100.00
28167;BME280;15455;53.376;-6.262;2023-03-21T06:53:57;99852.50;;;9.06;100.00
28167;BME280;15455;53.376;-6.262;2023-03-21T06:56:56;99848.19;;;9.04;100.00
28167;BME280;15455;53.376;-6.262;2023-03-21T06:59:46;99856.94;;;8.99;100.00
28167;BME280;15455;53.376;-6.262;2023-03-21T07:02:35;99864.81;;;8.93;100.00
28167;BME280;15455;53.376;-6.262;2023-03-21T07:05:26;99867.47;;;8.85;100.00
28167;BME280;15455;53.376;-6.262;2023-03-21T07:08:13;99870.97;;;8.81;100.00
28167;BME280;15455;53.376;-6.262;2023-03-21T07:11:01;99855.44;;;8.73;100.00
28167;BME280;15455;53.376;-6.262;2023-03-21T07:13:47;99862.38;;;8.76;100.00
28167;BME280;15455;53.376;-6.262;2023-03-21T07:16:33;99872.69;;;8.83;100.00
28167;BME280;15455;53.376;-6.262;2023-03-21T07:19:18;99879.53;;;8.92;100.00
28167;BME280;15455;53.376;-6.262;2023-03-21T07:22:04;99876.88;;;9.01;100.00
28167;BME280;15455;53.376;-6.262;2023-03-21T07:24:50;99887.19;;;9.08;100.00
28167;BME280;15455;53.376;-6.262;2023-03-21T07:27:49;99876.69;;;9.15;100.00
28167;BME280;15455;53.376;-6.262;2023-03-21T07:30:35;99886.19;;;9.19;100.00
28167;BME280;15455;53.376;-6.262;2023-03-21T07:33:21;99880.06;;;9.27;100.00
28167;BME280;15455;53.376;-6.262;2023-03-21T07:36:14;99886.94;;;9.31;100.00
28167;BME280;15455;53.376;-6.262;2023-03-21T07:39:02;99890.38;;;9.34;100.00
28167;BME280;15455;53.376;-6.262;2023-03-21T07:41:48;99881.69;;;9.35;100.00
28167;BME280;15455;53.376;-6.262;2023-03-21T07:44:45;99876.44;;;9.38;100.00
28167;BME280;15455;53.376;-6.262;2023-03-21T07:47:31;99883.38;;;9.41;100.00
28167;BME280;15455;53.376;-6.262;2023-03-21T07:50:17;99884.22;;;9.40;100.00
28167;BME280;15455;53.376;-6.262;2023-03-21T07:53:02;99892.13;;;9.34;100.00
28167;BME280;15455;53.376;-6.262;2023-03-21T07:55:52;99901.66;;;9.35;100.00
28167;BME280;15455;53.376;-6.262;2023-03-21T07:58:40;99911.22;;;9.33;100.00
28167;BME280;15455;53.376;-6.262;2023-03-21T08:01:25;99915.66;;;9.25;100.00
28167;BME280;15455;53.376;-6.262;2023-03-21T08:04:11;99932.25;;;9.16;100.00
28167;BME280;15455;53.376;-6.262;2023-03-21T08:06:56;99939.25;;;9.09;100.00
28167;BME280;15455;53.376;-6.262;2023-03-21T08:09:42;99948.81;;;9.09;100.00
28167;BME280;15455;53.376;-6.262;2023-03-21T08:12:28;99952.31;;;9.04;100.00
28167;BME280;15455;53.376;-6.262;2023-03-21T08:15:14;99949.69;;;9.06;100.00
28167;BME280;15455;53.376;-6.262;2023-03-21T08:18:00;99949.72;;;9.04;100.00
28167;BME280;15455;53.376;-6.262;2023-03-21T08:20:50;99935.81;;;9.04;100.00
28167;BME280;15455;53.376;-6.262;2023-03-21T08:23:36;99934.06;;;9.08;100.00
28167;BME280;15455;53.376;-6.262;2023-03-21T08:26:22;99923.59;;;9.12;100.00
28167;BME280;15455;53.376;-6.262;2023-03-21T08:29:09;99917.53;;;9.13;100.00
28167;BME280;15455;53.376;-6.262;2023-03-21T08:31:56;99920.03;;;9.21;100.00
28167;BME280;15455;53.376;-6.262;2023-03-21T08:34:42;99917.34;;;9.27;100.00
28167;BME280;15455;53.376;-6.262;2023-03-21T08:37:27;99905.16;;;9.34;100.00
28167;BME280;15455;53.376;-6.262;2023-03-21T08:40:16;99903.38;;;9.39;100.00
28167;BME280;15455;53.376;-6.262;2023-03-21T08:43:01;99920.56;;;9.54;100.00
28167;BME280;15455;53.376;-6.262;2023-03-21T08:45:48;99913.53;;;9.57;100.00
28167;BME280;15455;53.376;-6.262;2023-03-21T08:48:34;99892.75;;;9.53;100.00
28167;BME280;15455;53.376;-6.262;2023-03-21T08:51:22;99884.00;;;9.59;100.00
28167;BME280;15455;53.376;-6.262;2023-03-21T08:54:17;99879.63;;;9.64;100.00
28167;BME280;15455;53.376;-6.262;2023-03-21T08:57:03;99871.72;;;9.70;100.00
28167;BME280;15455;53.376;-6.262;2023-03-21T08:59:48;99867.44;;;9.66;100.00
28167;BME280;15455;53.376;-6.262;2023-03-21T09:02:34;99881.22;;;9.76;100.00
28167;BME280;15455;53.376;-6.262;2023-03-21T09:05:20;99889.66;;;9.93;100.00
28167;BME280;15455;53.376;-6.262;2023-03-21T09:08:06;99889.38;;;10.13;100.00
28167;BME280;15455;53.376;-6.262;2023-03-21T09:10:52;99885.06;;;10.11;100.00
28167;BME280;15455;53.376;-6.262;2023-03-21T09:13:39;99878.75;;;10.27;100.00
28167;BME280;15455;53.376;-6.262;2023-03-21T09:16:24;99878.63;;;10.36;100.00
28167;BME280;15455;53.376;-6.262;2023-03-21T09:19:10;99881.16;;;10.41;100.00
28167;BME280;15455;53.376;-6.262;2023-03-21T09:21:57;99872.47;;;10.40;100.00
28167;BME280;15455;53.376;-6.262;2023-03-21T09:24:43;99863.69;;;10.46;100.00
28167;BME280;15455;53.376;-6.262;2023-03-21T09:27:32;99853.19;;;10.51;100.00
28167;BME280;15455;53.376;-6.262;2023-03-21T09:30:19;99853.78;;;10.67;100.00
28167;BME280;15455;53.376;-6.262;2023-03-21T09:33:10;99856.13;;;10.82;100.00
28167;BME280;15455;53.376;-6.262;2023-03-21T09:36:03;99850.75;;;10.90;100.00
28167;BME280;15455;53.376;-6.262;2023-03-21T09:38:57;99855.75;;;11.04;100.00
28167;BME280;15455;53.376;-6.262;2023-03-21T09:42:02;99856.22;;;11.24;100.00
28167;BME280;15455;53.376;-6.262;2023-03-21T09:48:00;99850.75;;;11.35;100.00
28167;BME280;15455;53.376;-6.262;2023-03-21T09:50:46;99848.81;;;11.45;100.00
28167;BME280;15455;53.376;-6.262;2023-03-21T09:53:35;99846.06;;;11.53;100.00
28167;BME280;15455;53.376;-6.262;2023-03-21T09:56:24;99840.56;;;11.65;100.00
28167;BME280;15455;53.376;-6.262;2023-03-21T09:59:19;99837.00;;;11.69;100.00
28167;BME280;15455;53.376;-6.262;2023-03-21T10:02:34;99829.94;;;11.74;100.00
28167;BME280;15455;53.376;-6.262;2023-03-21T10:05:22;99821.25;;;11.72;100.00
28167;BME280;15455;53.376;-6.262;2023-03-21T10:08:24;99825.50;;;11.76;100.00
28167;BME280;15455;53.376;-6.262;2023-03-21T10:11:18;99820.06;;;11.86;100.00
28167;BME280;15455;53.376;-6.262;2023-03-21T10:14:15;99820.94;;;11.86;100.00
28167;BME280;15455;53.376;-6.262;2023-03-21T10:20:20;99817.97;;;12.03;100.00
28167;BME280;15455;53.376;-6.262;2023-03-21T10:23:11;99818.56;;;12.14;100.00
28167;BME280;15455;53.376;-6.262;2023-03-21T10:26:01;99826.00;;;12.31;100.00
28167;BME280;15455;53.376;-6.262;2023-03-21T10:28:48;99810.78;;;12.47;100.00
28167;BME280;15455;53.376;-6.262;2023-03-21T10:31:38;99809.69;;;12.56;100.00
28167;BME280;15455;53.376;-6.262;2023-03-21T10:34:30;99812.25;;;12.58;100.00
28167;BME280;15455;53.376;-6.262;2023-03-21T10:37:17;99806.09;;;12.60;100.00
28167;BME280;15455;53.376;-6.262;2023-03-21T10:40:03;99819.69;;;12.40;100.00
28167;BME280;15455;53.376;-6.262;2023-03-21T10:42:54;99824.09;;;12.38;100.00
28167;BME280;15455;53.376;-6.262;2023-03-21T10:45:40;99817.38;;;12.28;100.00
28167;BME280;15455;53.376;-6.262;2023-03-21T10:48:25;99816.63;;;12.23;100.00
28167;BME280;15455;53.376;-6.262;2023-03-21T10:51:21;99817.00;;;12.07;100.00
28167;BME280;15455;53.376;-6.262;2023-03-21T10:54:12;99824.78;;;12.10;100.00
28167;BME280;15455;53.376;-6.262;2023-03-21T10:57:15;99827.69;;;11.98;100.00
28167;BME280;15455;53.376;-6.262;2023-03-21T11:00:03;99819.94;;;11.92;100.00
28167;BME280;15455;53.376;-6.262;2023-03-21T11:03:01;99808.06;;;11.77;100.00
28167;BME280;15455;53.376;-6.262;2023-03-21T11:05:51;99815.53;;;11.55;100.00
28167;BME280;15455;53.376;-6.262;2023-03-21T11:08:40;99810.41;;;11.50;100.00
28167;BME280;15455;53.376;-6.262;2023-03-21T11:11:40;99827.06;;;11.44;100.00
28167;BME280;15455;53.376;-6.262;2023-03-21T11:20:07;99823.72;;;12.18;100.00
28167;BME280;15455;53.376;-6.262;2023-03-21T11:22:57;99822.75;;;12.22;100.00
28167;BME280;15455;53.376;-6.262;2023-03-21T11:25:42;99813.94;;;12.26;100.00
28167;BME280;15455;53.376;-6.262;2023-03-21T11:28:40;99817.88;;;12.44;100.00
28167;BME280;15455;53.376;-6.262;2023-03-21T11:31:39;99809.56;;;12.61;100.00
28167;BME280;15455;53.376;-6.262;2023-03-21T11:34:30;99812.03;;;12.67;100.00
28167;BME280;15455;53.376;-6.262;2023-03-21T11:37:36;99822.22;;;12.78;100.00
28167;BME280;15455;53.376;-6.262;2023-03-21T11:40:26;99835.91;;;12.55;100.00
28167;BME280;15455;53.376;-6.262;2023-03-21T11:46:07;99837.13;;;12.41;100.00
28167;BME280;15455;53.376;-6.262;2023-03-21T11:48:54;99840.13;;;12.60;100.00
28167;BME280;15455;53.376;-6.262;2023-03-21T11:51:45;99831.81;;;12.44;100.00
28167;BME280;15455;53.376;-6.262;2023-03-21T11:57:43;99838.72;;;12.81;100.00
28167;BME280;15455;53.376;-6.262;2023-03-21T12:00:53;99825.91;;;13.03;100.00
28167;BME280;15455;53.376;-6.262;2023-03-21T12:25:41;99808.44;;;13.34;100.00
28167;BME280;15455;53.376;-6.262;2023-03-21T12:31:28;99808.94;;;13.48;100.00
28167;BME280;15455;53.376;-6.262;2023-03-21T12:52:42;99800.28;;;12.82;100.00
28167;BME280;15455;53.376;-6.262;2023-03-21T12:55:33;99791.16;;;12.97;100.00
28167;BME280;15455;53.376;-6.262;2023-03-21T12:58:21;99777.53;;;13.15;100.00
28167;BME280;15455;53.376;-6.262;2023-03-21T13:01:09;99775.50;;;13.25;100.00
28167;BME280;15455;53.376;-6.262;2023-03-21T13:07:23;99769.22;;;13.31;100.00
28167;BME280;15455;53.376;-6.262;2023-03-21T13:10:18;99770.81;;;13.38;100.00
28167;BME280;15455;53.376;-6.262;2023-03-21T13:13:33;99758.94;;;13.25;100.00
28167;BME280;15455;53.376;-6.262;2023-03-21T13:16:25;99752.81;;;13.24;100.00
28167;BME280;15455;53.376;-6.262;2023-03-21T13:22:27;99750.03;;;13.30;100.00
28167;BME280;15455;53.376;-6.262;2023-03-21T13:25:22;99742.19;;;13.30;100.00
28167;BME280;15455;53.376;-6.262;2023-03-21T13:28:18;99729.81;;;13.34;100.00
28167;BME280;15455;53.376;-6.262;2023-03-21T13:31:14;99729.19;;;13.26;100.00
28167;BME280;15455;53.376;-6.262;2023-03-21T13:34:01;99721.91;;;13.37;100.00
28167;BME280;15455;53.376;-6.262;2023-03-21T13:36:49;99727.00;;;13.42;100.00
28167;BME280;15455;53.376;-6.262;2023-03-21T13:39:42;99713.81;;;13.45;100.00
28167;BME280;15455;53.376;-6.262;2023-03-21T13:42:31;99692.13;;;13.40;100.00
28167;BME280;15455;53.376;-6.262;2023-03-21T13:45:50;99685.31;;;13.32;100.00
28167;BME280;15455;53.376;-6.262;2023-03-21T13:48:41;99690.72;;;13.56;100.00
28167;BME280;15455;53.376;-6.262;2023-03-21T13:51:54;99676.72;;;13.57;100.00
28167;BME280;15455;53.376;-6.262;2023-03-21T13:54:49;99678.53;;;13.55;100.00
28167;BME280;15455;53.376;-6.262;2023-03-21T13:57:37;99674.03;;;13.59;100.00
28167;BME280;15455;53.376;-6.262;2023-03-21T14:00:26;99673.94;;;13.62;100.00
28167;BME280;15455;53.376;-6.262;2023-03-21T14:03:15;99672.84;;;13.69;100.00
28167;BME280;15455;53.376;-6.262;2023-03-21T14:06:04;99668.06;;;13.55;100.00
28167;BME280;15455;53.376;-6.262;2023-03-21T14:08:51;99674.78;;;13.35;100.00
28167;BME280;15455;53.376;-6.262;2023-03-21T14:11:37;99656.56;;;13.31;100.00
28167;BME280;15455;53.376;-6.262;2023-03-21T14:14:36;99658.09;;;13.38;100.00
28167;BME280;15455;53.376;-6.262;2023-03-21T14:17:24;99655.06;;;13.52;100.00
28167;BME280;15455;53.376;-6.262;2023-03-21T14:20:19;99638.13;;;13.62;100.00
28167;BME280;15455;53.376;-6.262;2023-03-21T14:23:05;99627.00;;;13.54;100.00
28167;BME280;15455;53.376;-6.262;2023-03-21T14:25:51;99620.56;;;13.37;100.00
28167;BME280;15455;53.376;-6.262;2023-03-21T14:28:41;99622.59;;;13.28;100.00
28167;BME280;15455;53.376;-6.262;2023-03-21T14:31:30;99618.41;;;13.22;100.00
28167;BME280;15455;53.376;-6.262;2023-03-21T14:34:17;99606.25;;;13.19;100.00
28167;BME280;15455;53.376;-6.262;2023-03-21T14:37:06;99600.47;;;13.08;100.00
28167;BME280;15455;53.376;-6.262;2023-03-21T14:39:57;99598.25;;;12.96;100.00
28167;BME280;15455;53.376;-6.262;2023-03-21T14:42:46;99584.06;;;12.75;100.00
28167;BME280;15455;53.376;-6.262;2023-03-21T14:45:34;99585.38;;;12.60;100.00
28167;BME280;15455;53.376;-6.262;2023-03-21T14:48:32;99578.84;;;12.43;100.00
28167;BME280;15455;53.376;-6.262;2023-03-21T14:51:18;99573.91;;;12.34;100.00
28167;BME280;15455;53.376;-6.262;2023-03-21T14:54:04;99574.28;;;12.20;100.00
28167;BME280;15455;53.376;-6.262;2023-03-21T14:56:54;99559.09;;;12.03;100.00
28167;BME280;15455;53.376;-6.262;2023-03-21T14:59:41;99562.16;;;11.85;100.00
28167;BME280;15455;53.376;-6.262;2023-03-21T15:02:30;99565.13;;;11.71;100.00
28167;BME280;15455;53.376;-6.262;2023-03-21T15:05:24;99562.66;;;11.66;100.00
28167;BME280;15455;53.376;-6.262;2023-03-21T15:08:15;99558.69;;;11.51;100.00
28167;BME280;15455;53.376;-6.262;2023-03-21T15:11:10;99547.44;;;11.47;100.00
28167;BME280;15455;53.376;-6.262;2023-03-21T15:13:58;99547.38;;;11.49;100.00
28167;BME280;15455;53.376;-6.262;2023-03-21T15:16:46;99546.59;;;11.47;100.00
28167;BME280;15455;53.376;-6.262;2023-03-21T15:19:34;99530.03;;;11.46;100.00
28167;BME280;15455;53.376;-6.262;2023-03-21T15:22:36;99527.41;;;11.46;100.00
28167;BME280;15455;53.376;-6.262;2023-03-21T15:25:25;99528.44;;;11.41;100.00
28167;BME280;15455;53.376;-6.262;2023-03-21T15:28:12;99518.09;;;11.36;100.00
28167;BME280;15455;53.376;-6.262;2023-03-21T15:30:58;99509.59;;;11.29;100.00
28167;BME280;15455;53.376;-6.262;2023-03-21T15:33:48;99510.66;;;11.22;100.00
28167;BME280;15455;53.376;-6.262;2023-03-21T15:36:41;99499.56;;;11.12;100.00
28167;BME280;15455;53.376;-6.262;2023-03-21T15:39:28;99490.00;;;11.11;100.00
28167;BME280;15455;53.376;-6.262;2023-03-21T15:45:32;99474.59;;;11.02;100.00
28167;BME280;15455;53.376;-6.262;2023-03-21T15:48:25;99473.88;;;10.95;100.00
28167;BME280;15455;53.376;-6.262;2023-03-21T15:51:20;99464.31;;;10.94;100.00
28167;BME280;15455;53.376;-6.262;2023-03-21T15:54:13;99464.38;;;10.91;100.00
28167;BME280;15455;53.376;-6.262;2023-03-21T15:57:02;99460.13;;;10.87;100.00
28167;BME280;15455;53.376;-6.262;2023-03-21T15:59:55;99465.41;;;10.86;100.00
28167;BME280;15455;53.376;-6.262;2023-03-21T16:02:42;99475.84;;;10.86;100.00
28167;BME280;15455;53.376;-6.262;2023-03-21T16:05:31;99468.97;;;10.82;100.00
28167;BME280;15455;53.376;-6.262;2023-03-21T16:08:20;99466.44;;;10.78;100.00
28167;BME280;15455;53.376;-6.262;2023-03-21T16:11:07;99456.13;;;10.74;100.00
28167;BME280;15455;53.376;-6.262;2023-03-21T16:13:54;99437.03;;;10.72;100.00
28167;BME280;15455;53.376;-6.262;2023-03-21T16:16:40;99431.81;;;10.72;100.00
28167;BME280;15455;53.376;-6.262;2023-03-21T16:19:25;99400.56;;;10.69;100.00
28167;BME280;15455;53.376;-6.262;2023-03-21T16:22:13;99410.16;;;10.68;100.00
28167;BME280;15455;53.376;-6.262;2023-03-21T16:24:59;99397.94;;;10.69;100.00
28167;BME280;15455;53.376;-6.262;2023-03-21T16:27:46;99401.47;;;10.68;100.00
28167;BME280;15455;53.376;-6.262;2023-03-21T16:30:31;99395.41;;;10.66;100.00
28167;BME280;15455;53.376;-6.262;2023-03-21T16:33:17;99395.47;;;10.64;100.00
28167;BME280;15455;53.376;-6.262;2023-03-21T16:36:02;99384.28;;;10.59;100.00